createdAt,value
2022-11-19T00:02:20.356Z,98649.25
2022-11-19T00:05:48.104Z,98644.52
2022-11-19T00:08:50.661Z,98642.88
2022-11-19T00:12:10.891Z,98646.16
2022-11-19T00:15:12.506Z,98652.81
2022-11-19T00:18:14.549Z,98648.28
2022-11-19T00:21:16.290Z,98647.46
2022-11-19T00:24:18.549Z,98655.94
2022-11-19T00:27:20.260Z,98662.96
2022-11-19T00:30:46.370Z,98670.75
2022-11-19T00:33:45.335Z,98675.10
2022-11-19T00:36:47.140Z,98662.90
2022-11-19T00:39:48.828Z,98671.45
2022-11-19T00:43:09.413Z,98667.17
2022-11-19T00:46:11.521Z,98669.30
2022-11-19T00:49:13.315Z,98673.26
2022-11-19T00:52:14.887Z,98679.58
2022-11-19T00:55:16.505Z,98673.59
2022-11-19T00:58:19.483Z,98671.66
2022-11-19T01:01:23.692Z,98669.42
2022-11-19T01:04:25.434Z,98673.59
2022-11-19T01:07:27.081Z,98679.13
2022-11-19T01:10:28.745Z,98681.73
2022-11-19T01:13:36.432Z,98679.98
2022-11-19T01:16:40.857Z,98683.19
2022-11-19T01:19:42.425Z,98683.04
2022-11-19T01:22:46.269Z,98684.31
2022-11-19T01:25:48.089Z,98693.08
2022-11-19T01:28:49.921Z,98691.27
2022-11-19T01:31:51.539Z,98695.42
2022-11-19T01:34:53.524Z,98696.25
2022-11-19T01:37:55.498Z,98693.19
2022-11-19T01:40:57.970Z,98693.24
2022-11-19T01:44:01.718Z,98689.91
2022-11-19T01:47:03.378Z,98687.45
2022-11-19T01:50:05.788Z,98692.23
2022-11-19T01:53:09.529Z,98691.73
2022-11-19T01:56:11.632Z,98691.86
2022-11-19T01:59:14.607Z,98695.04
2022-11-19T02:02:19.851Z,98689.71
2022-11-19T02:05:21.918Z,98692.34
2022-11-19T02:08:37.894Z,98700.85
2022-11-19T02:12:21.815Z,98711.36
2022-11-19T02:15:32.859Z,98720.44
2022-11-19T02:19:03.652Z,98735.72
2022-11-19T02:22:27.032Z,98731.41
2022-11-19T02:25:37.289Z,98728.94
2022-11-19T02:28:46.147Z,98739.42
2022-11-19T02:31:50.345Z,98741.07
2022-11-19T02:34:58.889Z,98749.47
2022-11-19T02:38:00.539Z,98752.93
2022-11-19T02:41:34.648Z,98761.48
2022-11-19T02:45:00.877Z,98765.52
2022-11-19T02:48:28.055Z,98770.79
2022-11-19T02:51:29.747Z,98778.45
2022-11-19T02:54:31.365Z,98782.29
2022-11-19T02:57:33.274Z,98778.20
2022-11-19T03:01:07.116Z,98783.77
2022-11-19T03:04:28.271Z,98777.23
2022-11-19T03:07:30.545Z,98778.90
2022-11-19T03:10:33.532Z,98784.44
2022-11-19T03:14:22.279Z,98800.14
2022-11-19T03:17:31.159Z,98798.92
2022-11-19T03:20:41.764Z,98808.65
2022-11-19T03:23:49.919Z,98809.92
2022-11-19T03:27:16.445Z,98812.80
2022-11-19T03:30:20.040Z,98821.80
2022-11-19T03:33:25.863Z,98820.14
2022-11-19T03:36:33.085Z,98821.05
2022-11-19T03:39:37.099Z,98819.88
2022-11-19T03:42:40.078Z,98819.26
2022-11-19T03:45:44.168Z,98814.29
2022-11-19T03:48:48.371Z,98823.05
2022-11-19T03:51:54.119Z,98829.81
2022-11-19T03:54:58.935Z,98836.58
2022-11-19T03:58:05.445Z,98827.63
2022-11-19T04:01:07.967Z,98837.70
2022-11-19T04:04:28.273Z,98832.49
2022-11-19T04:07:33.185Z,98830.09
2022-11-19T04:10:34.734Z,98835.44
2022-11-19T04:13:36.510Z,98835.36
2022-11-19T04:16:38.303Z,98839.73
2022-11-19T04:19:40.052Z,98848.01
2022-11-19T04:22:42.231Z,98856.49
2022-11-19T04:25:47.601Z,98864.86
2022-11-19T04:28:49.304Z,98865.63
2022-11-19T04:31:51.025Z,98869.06
2022-11-19T04:34:52.617Z,98870.59
2022-11-19T04:37:54.410Z,98865.04
2022-11-19T04:40:56.141Z,98860.98
2022-11-19T04:44:00.944Z,98866.88
2022-11-19T04:47:03.225Z,98869.41
2022-11-19T04:50:05.704Z,98873.61
2022-11-19T04:53:07.325Z,98874.40
2022-11-19T04:56:09.050Z,98873.80
2022-11-19T04:59:10.676Z,98878.11
2022-11-19T05:02:12.417Z,98882.04
2022-11-19T05:05:14.215Z,98882.58
2022-11-19T05:08:15.867Z,98890.52
2022-11-19T05:11:17.525Z,98893.56
2022-11-19T05:14:19.160Z,98897.36
2022-11-19T05:17:21.201Z,98900.33
2022-11-19T05:20:22.809Z,98898.45
2022-11-19T05:23:25.467Z,98909.46
2022-11-19T05:26:27.066Z,98909.70
2022-11-19T05:29:28.738Z,98913.79
2022-11-19T05:32:30.397Z,98926.45
2022-11-19T05:35:32.676Z,98938.20
2022-11-19T05:38:34.607Z,98943.92
2022-11-19T05:41:36.442Z,98952.71
2022-11-19T05:44:37.923Z,98961.31
2022-11-19T05:47:43.338Z,98961.31
2022-11-19T05:50:47.714Z,98963.30
2022-11-19T05:53:49.492Z,98974.06
2022-11-19T05:56:51.194Z,98973.90
2022-11-19T05:59:52.960Z,98982.21
2022-11-19T06:02:54.644Z,98990.77
2022-11-19T06:05:56.358Z,98996.92
2022-11-19T06:08:57.962Z,99004.69
2022-11-19T06:11:59.918Z,99004.77
2022-11-19T06:15:02.245Z,99006.20
2022-11-19T06:18:04.188Z,99002.90
2022-11-19T06:21:10.876Z,99009.23
2022-11-19T06:24:14.336Z,99015.23
2022-11-19T06:27:15.944Z,99018.89
2022-11-19T06:30:17.583Z,99022.08
2022-11-19T06:33:19.327Z,99028.98
2022-11-19T06:36:21.989Z,99032.03
2022-11-19T06:39:23.799Z,99036.98
2022-11-19T06:42:37.782Z,99041.33
2022-11-19T06:45:39.416Z,99041.95
2022-11-19T06:48:41.593Z,99051.00
2022-11-19T06:51:43.230Z,99053.81
2022-11-19T06:54:44.902Z,99058.29
2022-11-19T06:57:46.573Z,99072.27
2022-11-19T07:00:48.259Z,99070.14
2022-11-19T07:03:50.195Z,99074.51
2022-11-19T07:06:51.853Z,99078.77
2022-11-19T07:09:53.469Z,99083.23
2022-11-19T07:12:55.199Z,99086.64
2022-11-19T07:15:56.845Z,99085.24
2022-11-19T07:18:59.902Z,99093.28
2022-11-19T07:22:01.736Z,99096.55
2022-11-19T07:25:03.380Z,99094.55
2022-11-19T07:28:05.131Z,99092.10
2022-11-19T07:31:08.071Z,99094.39
2022-11-19T07:34:10.672Z,99092.48
2022-11-19T07:37:12.509Z,99094.45
2022-11-19T07:40:16.729Z,99097.04
2022-11-19T07:43:18.340Z,99097.75
2022-11-19T07:46:20.104Z,99099.96
2022-11-19T07:49:22.264Z,99098.15
2022-11-19T07:52:24.305Z,99100.92
2022-11-19T07:55:25.938Z,99099.04
2022-11-19T07:58:27.609Z,99100.38
2022-11-19T08:01:29.504Z,99099.05
2022-11-19T08:04:31.067Z,99107.11
2022-11-19T08:07:32.886Z,99117.23
2022-11-19T08:10:35.487Z,99117.76
2022-11-19T08:13:37.820Z,99124.04
2022-11-19T08:16:58.537Z,99121.92
2022-11-19T08:20:00.312Z,99119.70
2022-11-19T08:23:01.880Z,99117.56
2022-11-19T08:26:04.243Z,99122.23
2022-11-19T08:29:06.189Z,99123.20
2022-11-19T08:32:08.109Z,99123.58
2022-11-19T08:35:09.633Z,99122.17
2022-11-19T08:38:11.362Z,99121.58
2022-11-19T08:41:32.002Z,99116.05
2022-11-19T08:44:33.692Z,99123.83
2022-11-19T08:47:35.444Z,99129.86
2022-11-19T08:50:37.369Z,99136.40
2022-11-19T08:53:38.882Z,99140.09
2022-11-19T08:56:40.687Z,99145.34
2022-11-19T08:59:42.389Z,99151.46
2022-11-19T09:02:44.103Z,99149.66
2022-11-19T09:05:45.964Z,99154.89
2022-11-19T09:08:47.543Z,99156.96
2022-11-19T09:11:49.166Z,99156.60
2022-11-19T09:14:50.826Z,99157.83
2022-11-19T09:17:52.445Z,99156.00
2022-11-19T09:20:56.264Z,99157.16
2022-11-19T09:23:58.004Z,99160.53
2022-11-19T09:27:02.225Z,99163.17
2022-11-19T09:30:06.245Z,99158.59
2022-11-19T09:33:08.109Z,99160.21
2022-11-19T09:36:10.395Z,99161.27
2022-11-19T09:39:12.124Z,99163.34
2022-11-19T09:42:15.489Z,99163.67
2022-11-19T09:45:26.999Z,99170.30
2022-11-19T09:48:34.733Z,99177.02
2022-11-19T09:51:37.845Z,99178.21
2022-11-19T09:54:44.935Z,99177.29
2022-11-19T09:57:51.130Z,99173.36
2022-11-19T10:00:53.195Z,99177.54
2022-11-19T10:03:55.179Z,99181.85
2022-11-19T10:07:06.580Z,99183.09
2022-11-19T10:10:16.089Z,99181.98
2022-11-19T10:13:30.914Z,99187.05
2022-11-19T10:16:57.171Z,99186.23
2022-11-19T10:20:17.009Z,99183.88
2022-11-19T10:23:41.257Z,99178.73
2022-11-19T10:27:09.999Z,99176.92
2022-11-19T10:30:18.186Z,99179.85
2022-11-19T10:33:31.883Z,99181.56
2022-11-19T10:36:42.761Z,99181.78
2022-11-19T10:39:54.876Z,99180.92
2022-11-19T10:43:29.537Z,99182.16
2022-11-19T10:46:31.490Z,99188.98
2022-11-19T10:49:41.820Z,99185.13
2022-11-19T10:52:46.838Z,99179.39
2022-11-19T10:55:55.036Z,99176.65
2022-11-19T10:58:58.845Z,99173.43
2022-11-19T11:02:04.025Z,99172.36
2022-11-19T11:05:12.289Z,99175.39
2022-11-19T11:08:13.937Z,99178.38
2022-11-19T11:11:24.811Z,99178.77
2022-11-19T11:14:45.333Z,99176.33
2022-11-19T11:17:48.227Z,99171.35
2022-11-19T11:20:50.651Z,99166.70
2022-11-19T11:23:54.198Z,99167.86
2022-11-19T11:27:20.465Z,99172.60
2022-11-19T11:30:22.431Z,99171.24
2022-11-19T11:33:28.404Z,99176.80
2022-11-19T11:36:33.424Z,99182.95
2022-11-19T11:39:38.565Z,99185.34
2022-11-19T11:42:40.234Z,99190.79
2022-11-19T11:45:41.923Z,99190.21
2022-11-19T11:48:47.906Z,99187.06
2022-11-19T11:52:03.465Z,99186.78
2022-11-19T11:55:11.442Z,99189.66
2022-11-19T11:58:27.316Z,99191.23
2022-11-19T12:01:29.067Z,99188.71
2022-11-19T12:04:31.049Z,99192.43
2022-11-19T12:08:04.389Z,99196.52
2022-11-19T12:11:24.430Z,99196.38
2022-11-19T12:14:46.584Z,99201.09
2022-11-19T12:18:43.086Z,99207.45
2022-11-19T12:21:50.514Z,99202.74
2022-11-19T12:25:21.819Z,99200.67
2022-11-19T12:28:42.350Z,99201.85
2022-11-19T12:32:23.211Z,99202.76
2022-11-19T12:35:49.758Z,99203.73
2022-11-19T12:39:23.458Z,99209.71
2022-11-19T12:42:49.472Z,99219.88
2022-11-19T12:46:12.930Z,99210.08
2022-11-19T12:49:46.732Z,99209.09
2022-11-19T12:52:57.153Z,99213.36
2022-11-19T12:56:17.771Z,99223.89
2022-11-19T12:59:57.238Z,99230.56
2022-11-19T13:03:33.515Z,99227.44
2022-11-19T13:06:40.085Z,99222.92
2022-11-19T13:09:44.216Z,99221.77
2022-11-19T13:12:50.168Z,99218.91
2022-11-19T13:15:58.305Z,99217.01
2022-11-19T13:19:18.974Z,99224.44
2022-11-19T13:22:24.919Z,99233.53
2022-11-19T13:25:39.389Z,99232.64
2022-11-19T13:28:53.640Z,99229.88
2022-11-19T13:31:59.130Z,99229.10
2022-11-19T13:35:23.462Z,99231.19
2022-11-19T13:38:49.012Z,99228.48
2022-11-19T13:42:10.616Z,99234.05
2022-11-19T13:45:16.766Z,99233.45
2022-11-19T13:48:24.812Z,99239.46
2022-11-19T13:51:33.319Z,99237.63
2022-11-19T13:54:39.949Z,99242.23
2022-11-19T13:57:43.728Z,99242.52
2022-11-19T14:01:17.600Z,99241.88
2022-11-19T14:04:26.842Z,99246.34
2022-11-19T14:07:47.180Z,99244.09
2022-11-19T14:10:57.918Z,99249.48
2022-11-19T14:14:29.936Z,99257.88
2022-11-19T14:18:04.526Z,99258.04
2022-11-19T14:21:59.995Z,99250.77
2022-11-19T14:25:34.325Z,99261.44
2022-11-19T14:28:52.764Z,99259.02
2022-11-19T14:32:00.353Z,99260.43
2022-11-19T14:35:02.022Z,99256.75
2022-11-19T14:38:30.469Z,99259.00
2022-11-19T14:41:35.594Z,99262.44
2022-11-19T14:44:37.235Z,99258.92
2022-11-19T14:47:43.785Z,99262.77
2022-11-19T14:51:17.943Z,99264.41
2022-11-19T14:54:31.280Z,99262.52
2022-11-19T14:57:41.880Z,99262.90
2022-11-19T15:00:43.892Z,99265.80
2022-11-19T15:03:48.931Z,99265.36
2022-11-19T15:06:51.893Z,99270.72
2022-11-19T15:10:14.006Z,99277.36
2022-11-19T15:13:18.860Z,99282.27
2022-11-19T15:16:26.045Z,99288.21
2022-11-19T15:19:58.356Z,99283.33
2022-11-19T15:23:04.646Z,99283.45
2022-11-19T15:26:37.412Z,99285.48
2022-11-19T15:30:00.837Z,99290.45
2022-11-19T15:33:54.083Z,99284.83
2022-11-19T15:37:01.035Z,99277.38
2022-11-19T15:40:03.026Z,99283.44
2022-11-19T15:43:29.134Z,99285.99
2022-11-19T15:46:47.732Z,99284.79
2022-11-19T15:49:51.185Z,99284.04
2022-11-19T15:53:23.195Z,99273.38
2022-11-19T15:56:25.110Z,99274.48
2022-11-19T15:59:28.446Z,99279.39
2022-11-19T16:02:37.002Z,99281.66
2022-11-19T16:05:39.832Z,99281.63
2022-11-19T16:08:41.757Z,99272.63
2022-11-19T16:12:02.337Z,99279.48
2022-11-19T16:15:35.508Z,99273.30
2022-11-19T16:18:47.936Z,99271.98
2022-11-19T16:21:56.905Z,99269.02
2022-11-19T16:25:04.485Z,99276.00
2022-11-19T16:28:09.892Z,99276.20
2022-11-19T16:31:13.060Z,99278.14
2022-11-19T16:34:21.690Z,99282.20
2022-11-19T16:37:23.800Z,99281.52
2022-11-19T16:40:26.263Z,99277.58
2022-11-19T16:43:28.028Z,99267.79
2022-11-19T16:46:29.563Z,99276.03
2022-11-19T16:49:40.977Z,99276.95
2022-11-19T16:52:43.311Z,99275.85
2022-11-19T16:55:50.598Z,99280.06
2022-11-19T16:58:56.943Z,99280.10
2022-11-19T17:01:59.955Z,99279.91
2022-11-19T17:05:10.650Z,99279.27
2022-11-19T17:08:25.275Z,99272.93
2022-11-19T17:12:05.609Z,99266.80
2022-11-19T17:15:42.633Z,99267.96
2022-11-19T17:18:44.416Z,99272.27
2022-11-19T17:21:55.653Z,99276.31
2022-11-19T17:24:57.506Z,99284.52
2022-11-19T17:27:59.367Z,99285.02
2022-11-19T17:31:03.738Z,99283.31
2022-11-19T17:34:13.428Z,99276.62
2022-11-19T17:37:15.375Z,99277.45
2022-11-19T17:40:17.024Z,99278.56
2022-11-19T17:43:51.025Z,99272.67
2022-11-19T17:46:53.302Z,99274.46
2022-11-19T17:49:54.872Z,99274.01
2022-11-19T17:52:56.764Z,99272.83
2022-11-19T17:55:58.551Z,99277.40
2022-11-19T17:59:01.095Z,99282.38
2022-11-19T18:02:02.921Z,99284.09
2022-11-19T18:05:14.175Z,99283.02
2022-11-19T18:08:16.617Z,99288.19
2022-11-19T18:11:22.632Z,99289.67
2022-11-19T18:14:24.358Z,99282.23
2022-11-19T18:17:26.360Z,99269.23
2022-11-19T18:20:28.010Z,99266.81
2022-11-19T18:23:29.585Z,99268.57
2022-11-19T18:26:31.701Z,99269.29
2022-11-19T18:29:33.758Z,99271.09
2022-11-19T18:32:35.602Z,99268.30
2022-11-19T18:35:37.380Z,99262.23
2022-11-19T18:38:39.127Z,99267.39
2022-11-19T18:41:41.548Z,99264.61
2022-11-19T18:44:43.739Z,99266.73
2022-11-19T18:47:45.668Z,99265.66
2022-11-19T18:50:47.239Z,99263.11
2022-11-19T18:53:49.110Z,99266.14
2022-11-19T18:56:51.017Z,99269.12
2022-11-19T18:59:52.606Z,99274.88
2022-11-19T19:02:54.354Z,99272.55
2022-11-19T19:05:56.259Z,99266.27
2022-11-19T19:08:57.984Z,99269.23
2022-11-19T19:12:18.354Z,99271.92
2022-11-19T19:15:20.185Z,99262.76
2022-11-19T19:18:22.021Z,99263.67
2022-11-19T19:21:24.439Z,99263.81
2022-11-19T19:24:26.674Z,99258.36
2022-11-19T19:27:29.091Z,99259.92
2022-11-19T19:30:30.706Z,99257.28
2022-11-19T19:33:32.319Z,99248.60
2022-11-19T19:36:34.725Z,99247.31
2022-11-19T19:39:36.403Z,99247.45
2022-11-19T19:42:41.222Z,99249.96
2022-11-19T19:45:43.349Z,99245.97
2022-11-19T19:48:53.322Z,99259.08
2022-11-19T19:51:55.463Z,99259.00
2022-11-19T19:54:57.019Z,99260.63
2022-11-19T19:58:00.302Z,99257.89
2022-11-19T20:01:13.678Z,99263.60
2022-11-19T20:04:15.364Z,99263.75
2022-11-19T20:07:17.038Z,99261.60
2022-11-19T20:10:18.711Z,99251.18
2022-11-19T20:13:29.198Z,99254.52
2022-11-19T20:16:32.909Z,99247.81
2022-11-19T20:19:34.751Z,99248.55
2022-11-19T20:22:36.431Z,99250.73
2022-11-19T20:25:38.779Z,99250.80
2022-11-19T20:28:40.660Z,99245.78
2022-11-19T20:31:45.657Z,99244.54
2022-11-19T20:34:47.482Z,99244.64
2022-11-19T20:37:49.376Z,99241.55
2022-11-19T20:40:57.885Z,99242.02
2022-11-19T20:44:19.480Z,99248.27
2022-11-19T20:47:21.160Z,99250.36
2022-11-19T20:50:22.890Z,99251.48
2022-11-19T20:53:24.829Z,99258.53
2022-11-19T20:56:26.537Z,99255.61
2022-11-19T20:59:28.728Z,99247.31
2022-11-19T21:02:30.435Z,99246.45
2022-11-19T21:05:32.581Z,99245.49
2022-11-19T21:08:35.828Z,99244.18
2022-11-19T21:11:37.736Z,99240.70
2022-11-19T21:14:39.371Z,99250.27
2022-11-19T21:17:41.052Z,99251.91
2022-11-19T21:20:43.252Z,99258.60
2022-11-19T21:23:45.477Z,99264.13
2022-11-19T21:26:47.666Z,99265.86
2022-11-19T21:29:49.733Z,99266.38
2022-11-19T21:32:51.706Z,99263.60
2022-11-19T21:35:55.033Z,99264.64
2022-11-19T21:38:56.890Z,99262.55
2022-11-19T21:41:58.477Z,99262.79
2022-11-19T21:45:00.121Z,99261.05
2022-11-19T21:48:01.826Z,99261.83
2022-11-19T21:51:07.807Z,99258.42
2022-11-19T21:54:09.486Z,99253.11
2022-11-19T21:57:39.591Z,99253.59
2022-11-19T22:00:42.900Z,99252.86
2022-11-19T22:03:44.555Z,99246.58
2022-11-19T22:06:46.304Z,99248.39
2022-11-19T22:09:47.981Z,99260.70
2022-11-19T22:12:49.599Z,99259.89
2022-11-19T22:15:58.961Z,99264.27
2022-11-19T22:19:01.021Z,99262.20
2022-11-19T22:22:03.560Z,99256.09
2022-11-19T22:25:05.413Z,99257.26
2022-11-19T22:28:07.093Z,99255.58
2022-11-19T22:31:08.809Z,99258.23
2022-11-19T22:34:12.123Z,99257.11
2022-11-19T22:37:13.768Z,99250.23
2022-11-19T22:40:15.492Z,99249.11
2022-11-19T22:43:21.666Z,99250.55
2022-11-19T22:46:24.757Z,99253.48
2022-11-19T22:49:26.583Z,99251.63
2022-11-19T22:52:28.252Z,99253.73
2022-11-19T22:55:29.888Z,99254.95
2022-11-19T22:58:33.603Z,99247.76
2022-11-19T23:01:35.831Z,99251.63
2022-11-19T23:04:37.488Z,99254.88
2022-11-19T23:07:39.291Z,99250.88
2022-11-19T23:10:41.081Z,99254.25
2022-11-19T23:13:44.587Z,99252.28
2022-11-19T23:16:46.517Z,99246.26
2022-11-19T23:19:48.243Z,99245.55
2022-11-19T23:22:49.921Z,99244.15
2022-11-19T23:25:58.927Z,99251.86
2022-11-19T23:29:01.174Z,99245.43
2022-11-19T23:32:03.132Z,99240.19
2022-11-19T23:35:05.335Z,99236.13
2022-11-19T23:38:09.010Z,99231.96
2022-11-19T23:41:13.497Z,99231.76
2022-11-19T23:44:15.267Z,99228.08
2022-11-19T23:47:16.887Z,99225.69
2022-11-19T23:50:18.640Z,99222.37
2022-11-19T23:53:20.733Z,99225.47
2022-11-19T23:56:23.983Z,99228.42
2022-11-19T23:59:26.048Z,99237.54
